Forside
METAR-TAF:

METAR-TAF

Lufthavne :

Yap, Mikronesien

Breddekreds: 09-29N, længdekreds: 138-05E, højde: 28 m

Aktuelle vejr

Denne rapport blev lavet for 29 minutter siden, kl. 11:55 UTC
Vind stille
Temperatur 26°C
Fugtighed 94%
Tryk 1011 hPa
Sigt: 19.3 km
Nogle få skyer i en højde af 1600 ft
Spredte skyer i en højde af 14000 ft
Brudte skyer i en højde af 30000 ft

METAR: PTYA 171155Z 00000KT 12SM FEW016 SCT140 BKN300 26/25 A2984 RMK SLP105 70007 8/171 T02590249 10292 20259 51012

Tid: 22:24 (12:24 UTC)

Vejrudsigter

Denne rapport blev lavet for 1 time og 4 minutter siden, kl. 11:20 UTC
Foreløbig gælder fra 17 på 12 UTC til 18 på 12 UTC
Vind 4 kt fra varierende retninger
Sigt: 10 km
Spredte skyer i en højde af 1600 ft
Spredte skyer i en højde af 12000 ft
byger i nærheden
Fra 17 på 2100 UTC
Vind 9 kt fra vestsydvest
Sigt: 10 km
Spredte skyer i en højde af 1600 ft
Spredte skyer i en højde af 12000 ft
byger i nærheden

TAF: PTYA 171120Z 1712/1812 VRB04KT P6SM VCSH SCT016 SCT120 FM172100 24009KT P6SM VCSH SCT016 SCT120

Vejrobservationer og prognoser fra mere end 4000 lufthavne (METAR og TAF).

De gule og røde prikker repræsenterer de meteorologiske stationer.

Flyt musen over at se navnet på stationen.

Så klik over at se vejr observationer og prognoser.

At skifte det kort: Klik på de grønne knapper med et sort kors for at zoome ind; på den grønne knap med en bindestreg for at zoome ud; eller på de grønne pile for tilstødende kort.


METAR-TAF: